Time;durP1;ratioP1;P1;durP2;ratioP2;P2;SDS_P1;SDS_P2;PMS_P1;PMS_P2;Temp;Humidity;BMP_temperature;BMP_pressure;BME280_temperature;BME280_humidity;BME280_pressure;Samples;Min_cycle;Max_cycle;Signal;HPM_P1;HPM_P2
2022/05/14 00:00:40;;;;;;;28.02;17.73;;;;;;;12.84;48.68;98746.88;4990966;28;20325;-75
2022/05/14 00:03:06;;;;;;;12.73;7.22;;;;;;;12.77;49.14;98749.22;4991728;28;20034;-75
2022/05/14 00:05:31;;;;;;;9.27;5.10;;;;;;;12.69;49.31;98752.66;4991555;28;20038;-75
2022/05/14 00:07:57;;;;;;;10.88;3.75;;;;;;;12.64;49.49;98756.31;4990984;28;20058;-75
2022/05/14 00:10:25;;;;;;;8.30;3.90;;;;;;;12.60;49.89;98763.53;4991007;28;20030;-75
2022/05/14 00:13:08;;;;;;;7.72;4.05;;;;;;;12.54;49.60;98759.25;4990773;28;20531;-74
2022/05/14 00:15:40;;;;;;;6.07;3.75;;;;;;;12.47;50.03;98763.19;4991092;28;20039;-74
2022/05/14 00:18:08;;;;;;;6.93;3.72;;;;;;;12.42;50.24;98759.72;4990513;28;20041;-75
2022/05/14 00:20:36;;;;;;;4.70;3.50;;;;;;;12.36;49.73;98751.56;4990893;28;20545;-74
2022/05/14 00:23:02;;;;;;;6.72;4.35;;;;;;;12.31;50.23;98754.41;4990945;28;20046;-75
2022/05/14 00:25:28;;;;;;;8.10;4.70;;;;;;;12.25;50.53;98754.78;4991095;28;20033;-74
2022/05/14 00:27:53;;;;;;;10.50;4.22;;;;;;;12.19;50.54;98752.13;4990915;28;20047;-74
2022/05/14 00:30:23;;;;;;;6.97;4.50;;;;;;;12.14;50.38;98754.94;4990989;28;20030;-75
2022/05/14 00:32:49;;;;;;;6.90;3.85;;;;;;;12.11;50.02;98763.78;4990529;28;20031;-74
2022/05/14 00:35:15;;;;;;;6.70;3.65;;;;;;;12.06;50.24;98756.44;4991301;28;20049;-75
2022/05/14 00:37:40;;;;;;;5.47;3.42;;;;;;;12.01;50.10;98756.53;4991142;28;20038;-74
2022/05/14 00:40:28;;;;;;;8.02;3.78;;;;;;;11.97;50.69;98763.69;4990602;28;20041;-75
2022/05/14 00:42:54;;;;;;;8.75;3.88;;;;;;;11.95;50.65;98759.63;4989375;28;20027;-74
2022/05/14 00:45:20;;;;;;;10.38;4.15;;;;;;;11.90;50.73;98769.59;4991006;28;20022;-75
2022/05/14 00:47:51;;;;;;;5.72;3.80;;;;;;;11.85;50.37;98760.56;4990457;28;20550;-75
2022/05/14 00:50:26;;;;;;;8.20;3.97;;;;;;;11.76;50.62;98758.53;4990267;28;20027;-75
2022/05/14 00:53:00;;;;;;;9.02;4.70;;;;;;;11.69;51.35;98758.06;4988438;28;20305;-75
2022/05/14 00:55:27;;;;;;;6.60;4.00;;;;;;;11.61;51.74;98764.22;4989197;28;20030;-75
2022/05/14 00:57:53;;;;;;;4.63;3.92;;;;;;;11.51;52.38;98762.44;4988436;28;20740;-75
2022/05/14 01:00:21;;;;;;;6.63;3.75;;;;;;;11.44;51.67;98760.03;4990203;28;20551;-75
2022/05/14 01:02:48;;;;;;;7.43;3.80;;;;;;;11.42;51.92;98770.50;4990295;28;20038;-75
2022/05/14 01:05:14;;;;;;;6.88;3.95;;;;;;;11.41;51.95;98760.63;4991173;28;20433;-75
2022/05/14 01:07:41;;;;;;;8.10;3.83;;;;;;;11.40;52.30;98771.91;4991325;28;20109;-75
2022/05/14 01:10:12;;;;;;;11.35;4.20;;;;;;;11.39;52.03;98762.03;4990984;28;20130;-75
2022/05/14 01:12:43;;;;;;;7.25;4.18;;;;;;;11.35;52.05;98767.31;4991386;28;20490;-75
2022/05/14 01:15:21;;;;;;;5.72;4.18;;;;;;;11.32;51.96;98771.44;4991364;28;20026;-74
2022/05/14 01:17:48;;;;;;;6.05;4.30;;;;;;;11.27;52.14;98771.50;4989910;28;20026;-75
2022/05/14 01:20:16;;;;;;;8.38;4.30;;;;;;;11.22;52.36;98774.31;4990689;28;20038;-75
2022/05/14 01:23:19;;;;;;;7.97;4.60;;;;;;;11.19;52.34;98780.41;4990945;28;20113;-74
2022/05/14 01:26:29;;;;;;;5.78;4.30;;;;;;;11.16;52.69;98772.75;4984722;28;20122;-75
2022/05/14 01:29:22;;;;;;;6.20;4.00;;;;;;;11.15;52.97;98776.59;4989506;28;20053;-75
2022/05/14 01:31:49;;;;;;;6.75;4.43;;;;;;;11.13;53.27;98778.81;4992046;28;20041;-75
2022/05/14 01:34:21;;;;;;;8.93;4.18;;;;;;;11.09;53.19;98766.78;4994697;28;20479;-75
2022/05/14 01:36:47;;;;;;;6.88;4.80;;;;;;;11.06;53.97;98770.13;4994974;28;20031;-75
2022/05/14 01:39:13;;;;;;;9.15;4.30;;;;;;;11.02;54.05;98773.44;4991434;28;20081;-74
2022/05/14 01:41:39;;;;;;;6.60;4.20;;;;;;;10.99;53.18;98760.31;4994911;28;20030;-75
2022/05/14 01:44:05;;;;;;;8.60;4.85;;;;;;;10.96;54.26;98765.56;4994809;28;20022;-75
2022/05/14 01:46:30;;;;;;;7.13;4.32;;;;;;;10.93;53.28;98768.91;4994990;28;20037;-75
2022/05/14 01:48:56;;;;;;;5.90;4.53;;;;;;;10.90;53.93;98775.75;4994850;28;20075;-75
2022/05/14 01:51:22;;;;;;;9.18;5.18;;;;;;;10.89;54.13;98776.06;4994589;28;20022;-74
2022/05/14 01:53:48;;;;;;;9.63;5.13;;;;;;;10.85;53.65;98771.16;4994759;28;20084;-75
2022/05/14 01:56:14;;;;;;;8.00;5.70;;;;;;;10.85;54.02;98771.16;4991122;28;20490;-75
2022/05/14 01:58:40;;;;;;;8.70;5.88;;;;;;;10.83;54.88;98775.28;4994487;28;20037;-75
2022/05/14 02:01:26;;;;;;;6.43;5.30;;;;;;;10.79;54.88;98771.50;4994377;28;20434;-75
2022/05/14 02:03:57;;;;;;;8.23;5.40;;;;;;;10.78;54.64;98767.94;4994487;28;20552;-75
2022/05/14 02:06:24;;;;;;;7.55;5.47;;;;;;;10.76;54.85;98770.16;4994887;28;20030;-75
2022/05/14 02:08:50;;;;;;;12.32;5.57;;;;;;;10.74;54.86;98771.56;4994506;28;20500;-75
2022/05/14 02:11:16;;;;;;;7.30;4.63;;;;;;;10.70;55.49;98777.63;4994487;28;20044;-74
2022/05/14 02:13:43;;;;;;;9.32;4.80;;;;;;;10.64;55.24;98769.72;4994287;28;20390;-75
2022/05/14 02:16:09;;;;;;;11.18;4.93;;;;;;;10.56;55.46;98768.41;4994220;28;20076;-75
2022/05/14 02:18:36;;;;;;;7.47;5.00;;;;;;;10.52;55.89;98772.84;4994167;28;20030;-75
2022/05/14 02:21:02;;;;;;;5.95;4.60;;;;;;;10.47;56.60;98768.22;4994111;28;20089;-74
2022/05/14 02:23:28;;;;;;;8.75;5.30;;;;;;;10.49;56.08;98773.41;4994565;28;20395;-75
2022/05/14 02:25:54;;;;;;;7.38;5.03;;;;;;;10.49;56.37;98781.66;4994562;28;20030;-75
2022/05/14 02:28:20;;;;;;;9.02;5.25;;;;;;;10.46;56.90;98768.50;4993876;28;20054;-75
2022/05/14 02:30:45;;;;;;;7.18;4.63;;;;;;;10.42;57.64;98774.56;4994201;28;20077;-75
2022/05/14 02:33:12;;;;;;;8.05;5.00;;;;;;;10.41;57.66;98764.69;4994080;28;20054;-75
2022/05/14 02:35:38;;;;;;;7.88;5.25;;;;;;;10.39;57.44;98769.66;4993809;28;20050;-75
2022/05/14 02:38:03;;;;;;;9.80;5.28;;;;;;;10.35;58.20;98771.31;4994135;28;20058;-75
2022/05/14 02:40:29;;;;;;;8.15;4.90;;;;;;;10.32;57.83;98771.06;4993966;28;20502;-75
2022/05/14 02:42:55;;;;;;;5.70;5.00;;;;;;;10.32;57.96;98777.38;4994363;28;20535;-76
2022/05/14 02:45:21;;;;;;;9.27;4.70;;;;;;;10.32;57.42;98782.03;4993883;28;20026;-75
2022/05/14 02:47:48;;;;;;;8.95;4.78;;;;;;;10.36;58.09;98769.38;4993838;28;20513;-75
2022/05/14 02:50:14;;;;;;;7.18;4.88;;;;;;;10.37;57.30;98771.88;4993975;28;20026;-75
2022/05/14 02:52:41;;;;;;;6.63;4.55;;;;;;;10.39;57.67;98772.41;4994194;28;20050;-75
2022/05/14 02:55:08;;;;;;;6.68;4.25;;;;;;;10.43;57.69;98767.16;4993683;28;20026;-74
2022/05/14 02:57:34;;;;;;;6.60;4.60;;;;;;;10.44;57.56;98768.81;4994040;28;20030;-75
2022/05/14 03:00:00;;;;;;;8.73;5.15;;;;;;;10.42;57.79;98771.81;4993473;28;20031;-75
2022/05/14 03:02:25;;;;;;;10.65;4.70;;;;;;;10.39;57.17;98761.44;4993963;28;20501;-75
2022/05/14 03:04:51;;;;;;;6.85;4.95;;;;;;;10.36;57.83;98767.47;4992400;28;20018;-75
2022/05/14 03:07:17;;;;;;;9.63;4.95;;;;;;;10.34;57.85;98769.69;4993625;28;20029;-75
2022/05/14 03:09:43;;;;;;;7.55;5.65;;;;;;;10.32;57.85;98771.91;4993829;28;20062;-75
2022/05/14 03:12:11;;;;;;;20.08;10.55;;;;;;;10.28;57.54;98768.09;4993829;28;20022;-75
2022/05/14 03:14:37;;;;;;;11.40;5.22;;;;;;;10.25;58.24;98774.16;4993732;28;20058;-73
2022/05/14 03:17:03;;;;;;;7.68;5.75;;;;;;;10.23;58.30;98774.41;4993890;28;20502;-75
2022/05/14 03:19:28;;;;;;;7.70;4.80;;;;;;;10.24;58.24;98772.50;4993539;28;20109;-76
2022/05/14 03:21:54;;;;;;;9.55;4.72;;;;;;;10.25;58.63;98774.16;4993202;28;20483;-75
2022/05/14 03:24:19;;;;;;;10.32;4.78;;;;;;;10.31;57.97;98775.75;4993458;28;20101;-75
2022/05/14 03:26:45;;;;;;;8.75;4.95;;;;;;;10.35;57.90;98779.56;4993806;28;20095;-75
2022/05/14 03:29:12;;;;;;;8.75;5.10;;;;;;;10.38;57.73;98787.22;4993121;28;20054;-75
2022/05/14 03:31:40;;;;;;;9.52;5.53;;;;;;;10.43;57.49;98784.44;4993162;28;20396;-75
2022/05/14 03:34:06;;;;;;;7.53;5.00;;;;;;;10.48;57.87;98782.75;4992106;28;20418;-75
2022/05/14 03:36:31;;;;;;;9.93;5.88;;;;;;;10.51;57.39;98784.91;4991539;28;20042;-75
2022/05/14 03:38:57;;;;;;;9.00;6.40;;;;;;;10.50;57.15;98775.06;4993140;28;20038;-75
2022/05/14 03:41:23;;;;;;;9.88;5.25;;;;;;;10.52;57.69;98790.13;4993002;28;20480;-75
2022/05/14 03:43:49;;;;;;;10.48;5.30;;;;;;;10.54;57.56;98785.19;4993310;28;20037;-75
2022/05/14 03:46:14;;;;;;;8.45;4.85;;;;;;;10.59;57.16;98778.00;4992061;28;20489;-75
2022/05/14 03:48:41;;;;;;;8.85;4.82;;;;;;;10.61;57.74;98781.25;4993132;28;20030;-75
2022/05/14 03:51:07;;;;;;;8.93;4.97;;;;;;;10.68;57.46;98785.31;4992492;28;20026;-75
2022/05/14 03:53:35;;;;;;;7.57;5.18;;;;;;;10.77;57.95;98784.69;4991279;28;20112;-75
2022/05/14 03:56:00;;;;;;;8.75;4.68;;;;;;;10.84;57.28;98779.66;4992883;28;20034;-75
2022/05/14 03:58:26;;;;;;;7.47;4.53;;;;;;;10.93;58.12;98779.88;4992809;28;20030;-75
2022/05/14 04:00:51;;;;;;;11.77;4.13;;;;;;;11.00;57.43;98781.16;4992328;28;20050;-76
2022/05/14 04:03:17;;;;;;;11.18;5.00;;;;;;;11.08;57.67;98789.84;4992919;28;20036;-75
2022/05/14 04:05:43;;;;;;;13.05;4.93;;;;;;;11.13;57.54;98787.88;4992553;28;20105;-75
2022/05/14 04:08:08;;;;;;;10.48;5.45;;;;;;;11.19;57.59;98796.88;4992397;28;20027;-75
2022/05/14 04:10:34;;;;;;;9.98;4.68;;;;;;;11.22;57.61;98803.69;4992429;28;20034;-75
2022/05/14 04:13:00;;;;;;;8.68;4.32;;;;;;;11.25;57.35;98798.44;4992740;28;20533;-75
2022/05/14 04:15:27;;;;;;;9.75;5.40;;;;;;;11.29;57.27;98802.22;4992445;28;20450;-74
2022/05/14 04:17:53;;;;;;;10.18;4.60;;;;;;;11.35;57.00;98803.00;4992467;28;20038;-75
2022/05/14 04:20:18;;;;;;;8.38;4.47;;;;;;;11.41;56.99;98804.56;4991999;28;20145;-75
2022/05/14 04:22:44;;;;;;;9.48;4.47;;;;;;;11.47;56.95;98802.59;4992378;28;20026;-75
2022/05/14 04:25:11;;;;;;;8.25;4.63;;;;;;;11.53;56.56;98809.66;4992306;28;20041;-75
2022/05/14 04:27:38;;;;;;;5.32;3.78;;;;;;;11.61;56.26;98805.44;4992276;28;20162;-75
2022/05/14 04:30:04;;;;;;;8.48;4.10;;;;;;;11.68;56.42;98807.81;4991979;28;20034;-75
2022/05/14 04:32:29;;;;;;;5.82;3.75;;;;;;;11.71;56.49;98804.47;4991029;28;20029;-75
2022/05/14 04:34:56;;;;;;;9.02;3.90;;;;;;;11.76;56.18;98807.97;4992052;28;20022;-74
2022/05/14 04:37:21;;;;;;;5.57;3.78;;;;;;;11.80;56.73;98807.38;4991720;28;20022;-75
2022/05/14 04:39:47;;;;;;;8.13;3.90;;;;;;;11.83;56.16;98820.50;4990764;28;20117;-75
2022/05/14 04:42:12;;;;;;;5.35;3.70;;;;;;;11.85;56.70;98812.78;4992019;28;20522;-74
2022/05/14 04:44:38;;;;;;;7.88;4.05;;;;;;;11.90;56.12;98808.06;4992312;28;20558;-75
2022/05/14 04:47:07;;;;;;;7.50;3.78;;;;;;;11.95;55.89;98807.16;4991931;28;20033;-75
2022/05/14 04:49:41;;;;;;;7.70;3.80;;;;;;;11.99;56.36;98810.16;4991969;28;20038;-75
2022/05/14 04:52:06;;;;;;;7.45;3.95;;;;;;;12.02;56.03;98823.34;4991028;28;20041;-75
2022/05/14 04:54:32;;;;;;;7.68;4.03;;;;;;;12.06;56.11;98824.34;4990924;28;20424;-75
2022/05/14 04:56:57;;;;;;;7.03;4.18;;;;;;;12.05;55.25;98818.03;4991694;28;20030;-75
2022/05/14 04:59:23;;;;;;;5.38;3.67;;;;;;;12.07;55.67;98820.47;4991639;28;20125;-75
2022/05/14 05:04:34;;;;;;;9.38;4.13;;;;;;;12.17;55.11;98811.28;4991451;28;20065;-75
2022/05/14 05:06:59;;;;;;;7.22;3.80;;;;;;;12.24;55.65;98808.16;4991129;28;20398;-75
2022/05/14 05:09:25;;;;;;;8.10;3.60;;;;;;;12.27;55.17;98807.56;4991707;28;20031;-74
2022/05/14 05:11:50;;;;;;;8.02;4.28;;;;;;;12.33;55.37;98807.16;4991584;28;20080;-75
2022/05/14 05:14:17;;;;;;;5.80;3.65;;;;;;;12.42;54.78;98809.25;4991684;28;20480;-76
2022/05/14 05:16:42;;;;;;;8.23;3.70;;;;;;;12.51;54.92;98810.19;4991402;28;20045;-75
2022/05/14 05:19:07;;;;;;;4.65;3.65;;;;;;;12.58;55.23;98810.63;4991052;28;20026;-75
2022/05/14 05:21:33;;;;;;;8.55;4.10;;;;;;;12.68;54.29;98806.88;4991137;28;20398;-75
2022/05/14 05:23:59;;;;;;;5.68;3.72;;;;;;;12.84;53.92;98817.63;4991624;28;20030;-75
2022/05/14 05:26:24;;;;;;;7.90;3.70;;;;;;;12.89;54.00;98803.75;4991369;28;20026;-76
2022/05/14 05:28:50;;;;;;;6.18;3.58;;;;;;;12.99;53.83;98803.56;4990848;28;20046;-76
2022/05/14 05:31:17;;;;;;;6.32;3.60;;;;;;;13.14;53.76;98809.94;4990005;28;20026;-77
2022/05/14 05:33:43;;;;;;;9.30;3.20;;;;;;;13.28;53.73;98801.66;4989772;28;20042;-77
2022/05/14 05:36:08;;;;;;;5.78;3.20;;;;;;;13.40;53.82;98804.75;4990686;28;20022;-77
2022/05/14 05:38:34;;;;;;;9.80;3.67;;;;;;;13.52;53.39;98804.25;4990840;28;20019;-77
2022/05/14 05:40:59;;;;;;;8.32;3.78;;;;;;;13.65;53.36;98810.88;4990616;28;20490;-77
2022/05/14 05:43:25;;;;;;;9.68;4.18;;;;;;;13.77;52.56;98802.91;4991300;28;20467;-77
2022/05/14 05:45:50;;;;;;;6.45;3.03;;;;;;;13.86;52.14;98804.94;4991355;28;20022;-77
2022/05/14 05:48:16;;;;;;;14.82;3.65;;;;;;;13.92;52.27;98798.97;4990916;28;20044;-77
2022/05/14 05:50:44;;;;;;;8.95;3.28;;;;;;;14.01;51.85;98807.31;4990737;28;20031;-77
2022/05/14 05:53:10;;;;;;;10.15;3.58;;;;;;;14.06;51.35;98798.13;4990682;28;20085;-77
2022/05/14 05:58:20;;;;;;;44.22;25.67;;;;;;;14.10;51.41;98794.44;4990548;28;20122;-79
2022/05/14 06:00:46;;;;;;;8.57;4.00;;;;;;;14.14;51.11;98797.38;4990478;28;20121;-78
2022/05/14 06:03:12;;;;;;;5.43;2.80;;;;;;;14.17;50.77;98805.03;4991020;28;20092;-77
2022/05/14 06:05:39;;;;;;;5.45;2.80;;;;;;;14.22;51.17;98804.09;4991054;28;20467;-78
2022/05/14 06:08:09;;;;;;;4.45;2.58;;;;;;;14.28;50.96;98798.16;4990189;28;20065;-77
2022/05/14 06:10:35;;;;;;;4.80;2.80;;;;;;;14.37;50.78;98794.63;4990390;28;20038;-78
2022/05/14 06:13:01;;;;;;;7.53;2.92;;;;;;;14.43;50.64;98796.16;4990661;28;20023;-77
2022/05/14 06:15:26;;;;;;;5.53;2.47;;;;;;;14.55;50.61;98801.91;4991033;28;20023;-77
2022/05/14 06:17:52;;;;;;;8.50;2.58;;;;;;;14.62;50.54;98795.13;4993399;28;20104;-77
2022/05/14 06:20:19;;;;;;;5.10;2.38;;;;;;;14.67;50.43;98801.31;4993946;28;20034;-78
2022/05/14 06:22:45;;;;;;;5.53;2.53;;;;;;;14.71;50.19;98802.34;4994396;28;20022;-77
2022/05/14 06:25:12;;;;;;;5.68;2.58;;;;;;;14.75;50.09;98799.78;4994209;28;20037;-77
2022/05/14 06:27:37;;;;;;;8.20;2.70;;;;;;;14.83;49.55;98801.78;4993653;28;20046;-78
2022/05/14 06:30:04;;;;;;;4.97;2.00;;;;;;;14.86;49.15;98803.09;4993849;28;20053;-77
2022/05/14 06:32:30;;;;;;;3.22;1.73;;;;;;;14.89;49.52;98796.94;4993927;28;20042;-78
2022/05/14 06:34:55;;;;;;;4.97;1.80;;;;;;;14.92;49.41;98801.84;4993752;28;20038;-77
2022/05/14 06:37:21;;;;;;;4.65;1.73;;;;;;;15.00;49.17;98805.75;4993782;28;20137;-77
2022/05/14 06:39:46;;;;;;;5.75;1.95;;;;;;;15.09;48.98;98805.78;4993746;28;20721;-78
2022/05/14 06:42:13;;;;;;;3.92;1.75;;;;;;;15.16;48.38;98814.44;4992643;28;20030;-78
2022/05/14 06:44:38;;;;;;;5.63;2.20;;;;;;;15.18;47.81;98807.50;4992679;28;20088;-77
2022/05/14 06:47:04;;;;;;;3.22;2.00;;;;;;;15.15;48.50;98812.81;4993615;28;20026;-78
2022/05/14 06:49:29;;;;;;;4.85;2.05;;;;;;;15.16;48.71;98806.16;4991968;28;20026;-78
2022/05/14 06:51:59;;;;;;;5.60;2.17;;;;;;;15.17;48.53;98819.66;4993428;28;20224;-80
2022/05/14 06:54:25;;;;;;;5.30;2.22;;;;;;;15.20;48.75;98815.44;4993258;28;20109;-80
2022/05/14 06:56:51;;;;;;;5.50;1.80;;;;;;;15.24;49.02;98815.63;4992423;28;20512;-78
2022/05/14 06:59:16;;;;;;;5.90;2.47;;;;;;;15.25;48.87;98815.31;4992874;28;20391;-78
2022/05/14 07:01:45;;;;;;;10.10;2.20;;;;;;;15.30;48.65;98806.88;4992017;28;20034;-79
2022/05/14 07:06:58;;;;;;;8.57;1.90;;;;;;;15.44;48.35;98825.31;4993691;28;20513;-68
2022/05/14 07:09:33;;;;;;;2.67;1.70;;;;;;;15.45;48.15;98827.75;4993201;28;20454;-68
2022/05/14 07:12:04;;;;;;;6.13;1.85;;;;;;;15.49;47.77;98827.91;4991923;28;20494;-73
2022/05/14 07:14:32;;;;;;;5.35;1.60;;;;;;;15.51;47.62;98833.94;4993560;28;20030;-75
2022/05/14 07:16:57;;;;;;;5.18;1.73;;;;;;;15.50;47.09;98832.28;4991577;28;20037;-74
2022/05/14 07:19:23;;;;;;;4.68;1.70;;;;;;;15.55;47.58;98837.69;4992863;28;20034;-75
2022/05/14 07:21:50;;;;;;;5.70;1.67;;;;;;;15.58;47.17;98839.00;4992946;28;20029;-78
2022/05/14 07:24:19;;;;;;;3.58;1.38;;;;;;;15.61;47.19;98841.13;4989300;28;20057;-76
2022/05/14 07:26:45;;;;;;;2.15;1.30;;;;;;;15.66;47.24;98834.63;4993036;28;20038;-78
2022/05/14 07:29:14;;;;;;;4.10;1.48;;;;;;;15.71;47.28;98842.78;4990406;28;20374;-76
2022/05/14 07:31:39;;;;;;;3.00;1.27;;;;;;;15.75;46.83;98833.50;4991414;28;20026;-76
2022/05/14 07:34:07;;;;;;;2.47;1.30;;;;;;;15.79;46.42;98836.47;4992869;28;20069;-75
2022/05/14 07:36:40;;;;;;;5.45;1.70;;;;;;;15.83;45.57;98844.91;4993095;28;20493;-78
2022/05/14 07:39:06;;;;;;;5.25;1.52;;;;;;;15.85;45.87;98839.88;4988728;28;20026;-77
2022/05/14 07:41:35;;;;;;;3.20;1.40;;;;;;;15.85;45.47;98834.34;4991263;28;20110;-78
2022/05/14 07:44:03;;;;;;;3.60;1.50;;;;;;;15.90;45.71;98842.53;4991573;28;20470;-78
2022/05/14 07:46:34;;;;;;;6.05;1.80;;;;;;;15.97;44.82;98837.34;4991124;28;20042;-76
2022/05/14 07:49:00;;;;;;;5.18;1.50;;;;;;;16.04;45.07;98834.09;4991050;28;20030;-77
2022/05/14 07:51:27;;;;;;;5.65;1.80;;;;;;;16.06;44.96;98843.72;4990830;28;20031;-77
2022/05/14 07:53:53;;;;;;;5.07;1.77;;;;;;;16.05;45.47;98835.72;4991590;28;20026;-78
2022/05/14 07:56:18;;;;;;;4.40;1.40;;;;;;;16.12;44.77;98830.53;4992086;28;20022;-82
2022/05/14 07:58:45;;;;;;;4.75;1.77;;;;;;;16.17;45.10;98822.06;4991102;28;20446;-77
2022/05/14 08:01:11;;;;;;;6.65;1.58;;;;;;;16.24;44.46;98827.09;4990651;28;20033;-77
2022/05/14 08:03:36;;;;;;;4.00;1.52;;;;;;;16.34;44.73;98824.03;4991826;28;20018;-78
2022/05/14 08:06:03;;;;;;;6.10;1.70;;;;;;;16.46;44.56;98828.88;4990995;28;20090;-77
2022/05/14 08:08:28;;;;;;;4.28;1.98;;;;;;;16.50;44.58;98827.09;4991319;28;20468;-78
2022/05/14 08:10:55;;;;;;;6.63;1.92;;;;;;;16.60;44.44;98825.16;4990882;28;20058;-79
2022/05/14 08:13:23;;;;;;;5.38;2.22;;;;;;;16.71;43.43;98822.84;4991501;28;20026;-78
2022/05/14 08:15:50;;;;;;;2.88;1.60;;;;;;;16.80;43.70;98824.44;4990720;28;20085;-79
2022/05/14 08:18:16;;;;;;;5.35;2.45;;;;;;;16.89;43.98;98818.91;4990637;28;20061;-77
2022/05/14 08:20:43;;;;;;;7.05;2.70;;;;;;;17.04;43.93;98819.53;4990671;28;20089;-78
2022/05/14 08:26:00;;;;;;;5.15;1.92;;;;;;;17.43;43.91;98805.69;4991600;28;20585;-77
2022/05/14 08:28:27;;;;;;;7.20;1.90;;;;;;;17.52;43.44;98807.28;4989392;28;20051;-78
2022/05/14 08:30:53;;;;;;;5.13;2.45;;;;;;;17.55;41.77;98816.88;4989806;28;20022;-77
2022/05/14 08:33:19;;;;;;;5.75;1.77;;;;;;;17.61;43.44;98815.53;4991075;28;20077;-78
2022/05/14 08:35:46;;;;;;;3.40;1.67;;;;;;;17.65;42.61;98807.38;4990972;28;20041;-77
2022/05/14 08:38:13;;;;;;;2.33;1.58;;;;;;;17.66;42.09;98812.56;4990502;28;20027;-76
2022/05/14 08:40:42;;;;;;;7.90;1.70;;;;;;;17.71;42.66;98817.94;4989997;28;20034;-77
2022/05/14 08:43:21;;;;;;;4.50;1.58;;;;;;;17.71;41.37;98812.38;4990508;28;20479;-77
2022/05/14 08:45:46;;;;;;;5.55;2.17;;;;;;;17.81;41.82;98813.16;4990939;28;20045;-77
2022/05/14 08:48:19;;;;;;;5.05;1.50;;;;;;;17.93;40.11;98812.41;4990662;28;20045;-78
2022/05/14 08:50:54;;;;;;;4.03;1.67;;;;;;;17.96;41.35;98797.88;4990503;28;20026;-78
2022/05/14 08:53:23;;;;;;;5.47;1.98;;;;;;;18.12;41.50;98801.72;4990874;28;20045;-77
2022/05/14 08:56:21;;;;;;;7.50;2.30;;;;;;;18.24;40.71;98808.47;4989426;28;20466;-77
2022/05/14 08:58:55;;;;;;;5.43;2.45;;;;;;;18.29;40.89;98800.75;4979464;28;20057;-77
2022/05/14 09:01:24;;;;;;;6.60;2.17;;;;;;;18.39;40.80;98804.25;4986441;28;20042;-77
2022/05/14 09:03:50;;;;;;;3.13;1.77;;;;;;;18.40;40.32;98795.59;4988301;28;20023;-77
2022/05/14 09:06:16;;;;;;;5.60;1.58;;;;;;;18.41;40.61;98793.63;4990552;28;20034;-77
2022/05/14 09:08:42;;;;;;;3.42;1.40;;;;;;;18.46;40.46;98796.19;4990094;28;20100;-77
2022/05/14 09:11:23;;;;;;;4.43;1.63;;;;;;;18.53;40.13;98795.66;4989343;28;20121;-78
2022/05/14 09:13:54;;;;;;;5.28;1.60;;;;;;;18.61;40.66;98794.72;4988369;28;20027;-77
2022/05/14 09:16:32;;;;;;;6.45;1.70;;;;;;;18.62;40.27;98793.56;4987095;28;20117;-79
2022/05/14 09:18:58;;;;;;;6.20;1.83;;;;;;;18.59;39.77;98791.47;4987659;28;20498;-77
2022/05/14 09:21:30;;;;;;;5.15;1.77;;;;;;;18.54;39.91;98784.19;4990196;28;20030;-76
2022/05/14 09:24:18;;;;;;;4.78;1.70;;;;;;;18.58;39.04;98795.41;4990373;28;20065;-77
2022/05/14 09:26:43;;;;;;;6.32;1.88;;;;;;;18.49;38.85;98781.63;4990741;28;20041;-79
2022/05/14 09:29:47;;;;;;;4.03;1.70;;;;;;;18.45;39.79;98786.22;4990245;28;20046;-78
2022/05/14 09:32:22;;;;;;;5.47;1.45;;;;;;;18.29;39.92;98777.72;4981007;28;20050;-79
2022/05/14 09:34:48;;;;;;;4.95;1.63;;;;;;;18.40;40.00;98780.88;4990640;28;20031;-81
2022/05/14 09:37:23;;;;;;;5.78;1.80;;;;;;;18.64;40.39;98774.59;4989678;28;20093;-76
2022/05/14 09:40:00;;;;;;;4.53;1.80;;;;;;;18.83;39.80;98770.50;4989921;28;20030;-79
2022/05/14 09:42:33;;;;;;;6.25;2.10;;;;;;;18.89;39.09;98772.69;4987103;28;20566;-78
2022/05/14 09:45:00;;;;;;;9.77;2.35;;;;;;;18.87;38.31;98772.22;4986496;28;20491;-79
2022/05/14 09:47:31;;;;;;;6.38;1.92;;;;;;;18.67;38.69;98775.91;4988447;28;20553;-80
2022/05/14 09:50:02;;;;;;;5.30;2.38;;;;;;;18.62;39.33;98771.34;4989469;28;20034;-82
2022/05/14 09:52:32;;;;;;;4.32;1.83;;;;;;;18.69;39.44;98765.25;4991508;28;20105;-80
2022/05/14 09:55:01;;;;;;;5.50;2.05;;;;;;;18.86;39.56;98764.25;4992924;28;20087;-81
2022/05/14 09:57:55;;;;;;;9.52;4.05;;;;;;;19.04;39.35;98762.13;4993651;28;20034;-80
2022/05/14 10:00:21;;;;;;;4.13;1.75;;;;;;;19.23;39.18;98755.97;4992962;28;20034;-78
2022/05/14 10:03:18;;;;;;;6.55;2.08;;;;;;;19.39;37.05;98772.78;4993047;28;20042;-82
2022/05/14 10:06:05;;;;;;;4.90;1.90;;;;;;;19.47;35.83;98757.97;4993858;28;20034;-80
2022/05/14 10:08:53;;;;;;;4.57;2.20;;;;;;;19.41;35.32;98759.34;4993592;28;20109;-80
2022/05/14 10:11:24;;;;;;;5.45;1.90;;;;;;;19.51;34.99;98752.50;4992639;28;20077;-80
2022/05/14 10:14:32;;;;;;;4.43;1.65;;;;;;;19.60;36.16;98749.56;4992192;28;20434;-78
2022/05/14 10:17:16;;;;;;;6.80;1.98;;;;;;;19.75;36.07;98748.06;4970595;28;20490;-79
2022/05/14 10:19:53;;;;;;;3.67;1.90;;;;;;;19.72;35.35;98744.00;4993211;28;20434;-76
2022/05/14 10:26:45;;;;;;;4.60;1.70;;;;;;;19.63;35.59;98746.91;4992932;28;20030;-77
2022/05/14 10:28:19;;;;;;;6.63;1.67;;;;;;;19.63;37.05;98735.78;4992957;28;20707;-83
2022/05/14 10:30:59;;;;;;;3.30;1.63;;;;;;;19.82;36.25;98737.13;4992846;28;20028;-84
2022/05/14 10:33:27;;;;;;;4.20;1.90;;;;;;;19.73;34.87;98726.16;4993453;28;20440;-83
2022/05/14 10:36:03;;;;;;;7.05;1.73;;;;;;;19.78;35.23;98730.66;4993269;28;20065;-73
2022/05/14 10:38:40;;;;;;;12.48;1.70;;;;;;;20.01;34.62;98730.97;4992639;28;20026;-78
2022/05/14 10:41:08;;;;;;;3.38;1.50;;;;;;;20.24;35.53;98719.28;4991492;28;20034;-81
2022/05/14 10:43:52;;;;;;;4.25;1.50;;;;;;;20.40;34.91;98715.72;4992233;28;20022;-82
2022/05/14 10:46:21;;;;;;;12.55;6.97;;;;;;;20.27;33.85;98712.19;4991617;28;20053;-82
2022/05/14 10:49:20;;;;;;;9.38;4.93;;;;;;;20.09;33.91;98709.72;4989892;28;20428;-82
2022/05/14 10:51:47;;;;;;;;;;;;;;;20.16;34.13;98709.09;4988443;28;20038;-83
2022/05/14 10:54:19;;;;;;;7.10;2.53;;;;;;;20.20;32.99;98716.38;4992678;28;19928;-82
2022/05/14 10:57:20;;;;;;;6.90;2.97;;;;;;;20.14;33.98;98708.66;4987825;28;20458;-81
2022/05/14 10:59:50;;;;;;;8.13;2.53;;;;;;;20.17;33.68;98714.34;4991621;28;20742;-82
2022/05/14 11:02:31;;;;;;;6.50;2.28;;;;;;;20.21;33.90;98714.44;4990771;28;20470;-82
2022/05/14 11:04:57;;;;;;;6.78;2.50;;;;;;;20.28;32.98;98711.03;4992303;28;20045;-81
2022/05/14 11:07:30;;;;;;;11.07;3.63;;;;;;;20.35;32.35;98719.59;4991633;28;20173;-81
2022/05/14 11:10:17;;;;;;;7.43;4.18;;;;;;;20.34;33.35;98699.28;4991782;28;20080;-81
2022/05/14 11:12:43;;;;;;;7.72;3.42;;;;;;;20.43;32.64;98718.63;4991190;28;20058;-80
2022/05/14 11:15:25;;;;;;;8.43;3.40;;;;;;;20.33;32.40;98707.97;4992632;28;20027;-80
2022/05/14 11:18:05;;;;;;;6.35;2.30;;;;;;;20.22;33.26;98710.47;4990595;28;20059;-80
2022/05/14 11:20:30;;;;;;;10.07;2.55;;;;;;;20.28;33.54;98694.31;4990760;28;20053;-80
2022/05/14 11:23:12;;;;;;;3.95;2.03;;;;;;;20.29;32.97;98688.41;4991920;28;20475;-75
2022/05/14 11:25:38;;;;;;;6.18;2.40;;;;;;;20.37;33.84;98700.53;4992312;28;20026;-75
2022/05/14 11:28:13;;;;;;;5.75;2.75;;;;;;;20.50;34.18;98698.50;4991798;28;20561;-75
2022/05/14 11:30:46;;;;;;;4.70;2.35;;;;;;;20.65;34.08;98686.56;4991722;28;20041;-74
2022/05/14 11:33:33;;;;;;;7.20;2.38;;;;;;;20.82;33.78;98685.44;4991457;28;20079;-76
2022/05/14 11:36:25;;;;;;;4.50;2.00;;;;;;;20.95;33.56;98686.13;4991191;28;20114;-76
2022/05/14 11:39:08;;;;;;;7.22;3.13;;;;;;;21.09;33.68;98685.69;4984373;28;20049;-76
2022/05/14 11:41:37;;;;;;;5.53;2.55;;;;;;;21.17;32.36;98683.06;4989986;28;20038;-72
2022/05/14 11:44:06;;;;;;;3.95;2.65;;;;;;;21.21;31.59;98684.75;4991932;28;20026;-72
2022/05/14 11:46:47;;;;;;;5.03;2.17;;;;;;;21.30;33.15;98681.78;4990930;28;20018;-72
2022/05/14 11:49:13;;;;;;;7.22;3.00;;;;;;;21.41;32.72;98677.25;4989535;28;20132;-74
2022/05/14 11:52:00;;;;;;;7.93;3.45;;;;;;;21.52;33.10;98674.72;4991471;28;20026;-72
2022/05/14 11:54:51;;;;;;;5.18;2.20;;;;;;;21.61;33.24;98684.84;4986304;28;20061;-76
2022/05/14 11:57:48;;;;;;;6.28;3.72;;;;;;;21.84;34.08;98671.00;4982181;28;20050;-74